Time;durP1;ratioP1;P1;durP2;ratioP2;P2;SDS_P1;SDS_P2;PMS_P1;PMS_P2;Temp;Humidity;BMP_temperature;BMP_pressure;BME280_temperature;BME280_humidity;BME280_pressure;Samples;Min_cycle;Max_cycle;Signal;HPM_P1;HPM_P2
2022/01/27 00:07:36;;;;;;;1999.90;999.90;;;;;;;1.31;75.02;95527.25;5013273;28;20161;-89
2022/01/27 00:10:20;;;;;;;808.73;405.93;;;;;;;1.69;74.20;95565.31;5013370;28;20207;-89
2022/01/27 00:12:46;;;;;;;1427.47;713.20;;;;;;;1.68;74.25;95575.81;5013088;28;20959;-89
2022/01/27 00:15:13;;;;;;;1999.90;999.90;;;;;;;1.62;74.65;95560.81;5027558;28;20168;-89
2022/01/27 00:17:47;;;;;;;1361.60;686.67;;;;;;;1.34;74.44;95511.41;5011341;28;21223;-88
2022/01/27 00:20:14;;;;;;;1440.60;722.47;;;;;;;1.33;74.24;95485.63;5011364;28;20200;-89
2022/01/27 00:22:40;;;;;;;1472.33;743.10;;;;;;;1.70;74.20;95561.75;5012461;28;20618;-88
2022/01/27 00:25:06;;;;;;;1445.00;719.00;;;;;;;1.35;74.29;95514.81;5011518;28;20271;-88
2022/01/27 00:27:33;;;;;;;1999.90;999.90;;;;;;;1.33;74.57;95508.97;5012875;28;20525;-88
2022/01/27 00:30:04;;;;;;;1999.90;999.90;;;;;;;1.44;74.34;95525.19;5011392;28;20557;-88
2022/01/27 00:32:31;;;;;;;1999.90;999.90;;;;;;;1.72;73.89;95561.63;5011356;28;20181;-89
2022/01/27 00:34:57;;;;;;;1394.50;692.80;;;;;;;1.27;73.90;95494.78;5012677;28;20171;-89
2022/01/27 00:37:22;;;;;;;1396.93;692.13;;;;;;;1.40;74.03;95515.22;5027931;28;20180;-89
2022/01/27 00:39:48;;;;;;;1999.90;999.90;;;;;;;1.41;74.04;95516.88;5027818;28;20210;-89
2022/01/27 00:42:13;;;;;;;1999.90;999.90;;;;;;;1.63;74.27;95562.44;5011165;28;20263;-89
2022/01/27 00:44:39;;;;;;;1999.90;999.90;;;;;;;1.43;74.48;95528.75;5012273;28;20194;-90
2022/01/27 00:47:04;;;;;;;1999.90;999.90;;;;;;;1.27;74.90;95497.38;5012401;28;20176;-89
2022/01/27 00:49:30;;;;;;;1999.90;999.90;;;;;;;1.49;74.45;95520.41;5011125;28;20246;-90
2022/01/27 00:51:56;;;;;;;1999.90;999.90;;;;;;;1.35;74.25;95499.28;5012472;28;20751;-90
2022/01/27 00:54:26;;;;;;;1999.90;999.90;;;;;;;1.62;73.63;95537.47;5011504;28;20643;-90
2022/01/27 00:56:58;;;;;;;1999.90;999.90;;;;;;;1.36;73.48;95493.13;5011372;28;20164;-91
2022/01/27 00:59:47;;;;;;;1999.90;999.90;;;;;;;1.70;73.96;95558.34;5011386;28;20189;-90
2022/01/27 01:03:00;;;;;;;1999.90;999.90;;;;;;;1.68;73.54;95553.28;5011215;28;20595;-89
2022/01/27 01:07:35;;;;;;;1406.87;713.60;;;;;;;1.50;73.94;95508.25;5012900;28;20164;-90
2022/01/27 01:15:34;;;;;;;1999.90;999.90;;;;;;;1.41;73.31;95496.13;5013032;28;20732;-90
2022/01/27 01:33:56;;;;;;;1999.90;999.90;;;;;;;1.47;72.65;95508.53;5015292;28;20211;-89
2022/01/27 01:36:37;;;;;;;1999.90;999.90;;;;;;;1.42;72.53;95502.94;5015323;28;20176;-89
2022/01/27 01:39:04;;;;;;;1999.90;999.90;;;;;;;1.35;72.74;95494.91;5016124;28;20160;-89
2022/01/27 01:41:29;;;;;;;1999.90;999.90;;;;;;;1.37;73.03;95502.56;5030943;28;20200;-89
2022/01/27 01:43:55;;;;;;;1999.90;999.90;;;;;;;1.32;73.25;95491.75;5014264;28;20187;-89
2022/01/27 01:46:20;;;;;;;1999.90;999.90;;;;;;;1.33;72.87;95488.22;5014455;28;20223;-89
2022/01/27 01:48:46;;;;;;;1999.90;999.90;;;;;;;1.30;72.79;95471.16;5015362;28;20184;-89
2022/01/27 01:51:12;;;;;;;1999.90;999.90;;;;;;;1.72;72.20;95528.72;5015889;28;20169;-89
2022/01/27 01:53:37;;;;;;;1999.90;999.90;;;;;;;1.45;72.06;95489.72;5015438;28;20183;-90
2022/01/27 01:56:05;;;;;;;1999.90;999.90;;;;;;;1.20;72.70;95464.38;5015497;28;20251;-89
2022/01/27 01:58:30;;;;;;;1999.90;999.90;;;;;;;1.37;72.69;95474.84;5015248;28;20264;-89
2022/01/27 02:00:56;;;;;;;1999.90;999.90;;;;;;;1.32;72.29;95464.06;5030567;28;20291;-90
2022/01/27 02:03:22;;;;;;;1999.90;999.90;;;;;;;1.14;72.61;95435.44;5030757;28;20200;-90
2022/01/27 02:05:53;;;;;;;1999.90;999.90;;;;;;;1.20;72.88;95441.84;5030718;28;20196;-90
2022/01/27 02:19:20;;;;;;;1999.90;999.90;;;;;;;1.73;72.94;95516.56;5014787;28;20235;-89
2022/01/27 02:21:53;;;;;;;1999.90;999.90;;;;;;;1.74;72.85;95516.38;5014875;28;20181;-89
2022/01/27 02:24:20;;;;;;;1999.90;999.90;;;;;;;1.70;73.27;95515.03;5014921;28;20157;-89
2022/01/27 02:26:49;;;;;;;1371.73;686.63;;;;;;;1.71;73.94;95505.50;5030144;28;20164;-88
2022/01/27 02:29:16;;;;;;;1999.90;999.90;;;;;;;1.63;73.76;95498.41;5013117;28;20180;-87
2022/01/27 02:31:42;;;;;;;1999.90;999.90;;;;;;;1.51;73.28;95479.59;5014843;28;21092;-88
2022/01/27 02:34:08;;;;;;;1999.90;999.90;;;;;;;1.49;73.59;95472.88;5029731;28;20176;-89
2022/01/27 02:36:34;;;;;;;1999.90;999.90;;;;;;;1.20;74.21;95425.47;5029292;28;20173;-89
2022/01/27 02:39:01;;;;;;;1397.27;692.70;;;;;;;1.38;73.74;95457.50;5028596;28;20267;-89
2022/01/27 02:41:30;;;;;;;847.20;437.23;;;;;;;1.77;74.05;95504.91;5013733;28;20283;-88
2022/01/27 02:43:56;;;;;;;1999.90;999.90;;;;;;;1.56;73.82;95478.34;5013744;28;20271;-89
2022/01/27 02:46:30;;;;;;;1399.43;695.57;;;;;;;1.43;73.47;95460.50;5012935;28;20600;-89
2022/01/27 02:48:57;;;;;;;1377.80;688.70;;;;;;;1.45;74.02;95459.41;5014552;28;20188;-89
2022/01/27 02:51:22;;;;;;;1999.90;999.90;;;;;;;1.37;73.55;95450.69;5013273;28;20602;-89
2022/01/27 02:53:48;;;;;;;762.10;395.30;;;;;;;1.31;73.89;95449.44;5012931;28;20176;-89
2022/01/27 02:56:13;;;;;;;1999.90;999.90;;;;;;;1.43;74.11;95466.50;5012635;28;20579;-89
2022/01/27 02:58:39;;;;;;;1999.90;999.90;;;;;;;1.58;74.18;95494.56;5013992;28;20169;-88
2022/01/27 03:01:04;;;;;;;1999.90;999.90;;;;;;;1.70;74.20;95511.63;5029227;28;20203;-88
2022/01/27 03:03:30;;;;;;;1999.90;999.90;;;;;;;1.32;74.54;95448.50;5013933;28;20168;-89
2022/01/27 03:05:56;;;;;;;1999.90;999.90;;;;;;;1.40;73.94;95471.13;5012664;28;20651;-89
2022/01/27 03:08:21;;;;;;;1999.90;999.90;;;;;;;1.43;74.29;95458.72;5013740;28;20179;-89
2022/01/27 03:10:58;;;;;;;1999.90;999.90;;;;;;;1.72;74.18;95513.13;5013717;28;20583;-88
2022/01/27 03:13:23;;;;;;;1999.90;999.90;;;;;;;1.51;74.13;95470.97;5012443;28;20219;-88
2022/01/27 03:15:49;;;;;;;1999.90;999.90;;;;;;;1.79;74.30;95510.78;5012465;28;20227;-89
2022/01/27 03:18:14;;;;;;;1999.90;999.90;;;;;;;1.61;74.68;95476.97;5013803;28;20227;-88
2022/01/27 03:20:40;;;;;;;1999.90;999.90;;;;;;;1.56;74.10;95466.19;5028909;28;20282;-88
2022/01/27 03:23:07;;;;;;;1999.90;999.90;;;;;;;1.87;73.23;95501.34;5013640;28;20179;-88
2022/01/27 03:25:32;;;;;;;1999.90;999.90;;;;;;;1.38;73.23;95429.81;5012304;28;20552;-89
2022/01/27 03:27:58;;;;;;;767.97;376.03;;;;;;;1.55;73.78;95455.97;5013193;28;20236;-88
2022/01/27 03:30:24;;;;;;;1999.90;999.90;;;;;;;1.34;73.62;95438.81;5011278;28;20267;-88
2022/01/27 03:32:49;;;;;;;1381.70;685.03;;;;;;;1.40;73.93;95446.03;5012531;28;20173;-88
2022/01/27 03:35:15;;;;;;;1999.90;999.90;;;;;;;1.37;73.79;95433.34;5012663;28;20184;-89
2022/01/27 03:37:40;;;;;;;1999.90;999.90;;;;;;;1.45;73.37;95437.84;5011738;28;20188;-89
2022/01/27 03:40:06;;;;;;;1999.90;999.90;;;;;;;1.72;73.97;95476.00;5012015;28;20583;-89
2022/01/27 03:42:32;;;;;;;1999.90;999.90;;;;;;;1.81;73.12;95495.91;5012182;28;20548;-89
2022/01/27 03:44:58;;;;;;;1999.90;999.90;;;;;;;1.54;73.17;95472.47;5013218;28;20651;-88
2022/01/27 03:47:23;;;;;;;1999.90;999.90;;;;;;;1.60;73.06;95474.50;5013193;28;20167;-89
2022/01/27 03:49:48;;;;;;;1999.90;999.90;;;;;;;1.57;73.19;95477.38;5011123;28;20172;-89
2022/01/27 03:52:14;;;;;;;1383.73;688.00;;;;;;;1.58;74.08;95481.59;5011811;28;20595;-89
2022/01/27 03:54:39;;;;;;;1999.90;999.90;;;;;;;1.42;73.73;95453.66;5013147;28;20256;-89
2022/01/27 03:57:05;;;;;;;1999.90;999.90;;;;;;;1.77;73.84;95517.91;5011754;28;20176;-88
2022/01/27 03:59:30;;;;;;;1999.90;999.90;;;;;;;1.55;74.32;95484.50;5013460;28;20189;-89
2022/01/27 04:01:56;;;;;;;1396.63;691.37;;;;;;;1.25;74.39;95431.88;5011677;28;20549;-88
2022/01/27 04:04:22;;;;;;;1362.57;684.00;;;;;;;1.50;73.94;95466.75;5011569;28;20612;-88
2022/01/27 04:06:51;;;;;;;1391.00;693.70;;;;;;;1.83;73.78;95504.34;5011640;28;20256;-88
2022/01/27 04:09:16;;;;;;;1999.90;999.90;;;;;;;1.54;73.45;95462.94;5012633;28;20173;-88
2022/01/27 04:11:42;;;;;;;1999.90;999.90;;;;;;;1.89;73.63;95532.34;5012940;28;20215;-88
2022/01/27 04:14:10;;;;;;;1999.90;999.90;;;;;;;1.63;73.91;95490.63;5011857;28;20659;-89
2022/01/27 04:16:36;;;;;;;1999.90;999.90;;;;;;;1.60;74.00;95483.13;5011584;28;20176;-89
2022/01/27 04:19:01;;;;;;;1999.90;999.90;;;;;;;1.46;73.35;95449.84;5028063;28;20285;-91
2022/01/27 04:21:27;;;;;;;1999.90;999.90;;;;;;;1.88;73.34;95513.38;5012816;28;20204;-90
2022/01/27 04:23:53;;;;;;;1999.90;999.90;;;;;;;1.63;73.28;95477.66;5011660;28;20169;-89
2022/01/27 04:26:23;;;;;;;1999.90;999.90;;;;;;;1.83;74.17;95535.50;5011375;28;20176;-88
2022/01/27 04:28:51;;;;;;;825.63;407.60;;;;;;;1.47;74.44;95486.00;5011445;28;20230;-88
2022/01/27 04:31:16;;;;;;;835.83;413.13;;;;;;;1.41;74.43;95467.59;5011434;28;20180;-87
2022/01/27 04:33:42;;;;;;;1999.90;999.90;;;;;;;1.50;74.27;95482.31;5011190;28;20227;-87
2022/01/27 04:36:19;;;;;;;334.17;152.00;;;;;;;1.42;75.00;95477.00;5012542;28;20168;-88
2022/01/27 04:38:54;;;;;;;1999.90;999.90;;;;;;;1.51;74.92;95489.13;5011217;28;20176;-89
2022/01/27 04:43:56;;;;;;;1425.27;709.37;;;;;;;1.84;74.93;95532.75;5011855;28;20173;-88
2022/01/27 04:46:50;;;;;;;291.30;134.40;;;;;;;1.33;74.84;95468.28;5010633;28;20171;-88
2022/01/27 04:49:09;;;;;;;1142.20;635.63;;;;;;;1.55;74.80;95500.88;5011473;28;20196;-89
2022/01/27 04:51:35;;;;;;;1526.53;778.60;;;;;;;1.71;75.37;95539.22;5011056;28;20180;-89
2022/01/27 04:54:14;;;;;;;413.80;226.60;;;;;;;1.27;75.10;95473.22;5011171;28;20555;-89
2022/01/27 04:56:40;;;;;;;1481.27;753.33;;;;;;;1.77;75.51;95552.44;5012283;28;20169;-88
2022/01/27 04:59:14;;;;;;;1502.57;764.63;;;;;;;1.62;75.30;95530.50;5010328;28;20622;-89
2022/01/27 05:01:45;;;;;;;1490.80;758.47;;;;;;;1.51;75.44;95507.28;5012833;28;20299;-89
2022/01/27 05:04:15;;;;;;;1999.90;999.90;;;;;;;1.43;74.78;95491.63;5014102;28;20177;-88
2022/01/27 05:06:40;;;;;;;1462.63;751.57;;;;;;;1.50;75.28;95497.88;5015746;28;20176;-88
2022/01/27 05:09:06;;;;;;;293.50;146.90;;;;;;;1.43;75.41;95482.06;5015874;28;20172;-88
2022/01/27 05:11:36;;;;;;;1470.60;731.93;;;;;;;1.71;75.49;95531.44;5015977;28;20169;-89
2022/01/27 05:16:56;;;;;;;793.70;388.30;;;;;;;1.88;75.10;95564.44;5002916;28;20195;-88
2022/01/27 05:19:21;;;;;;;1404.27;699.00;;;;;;;1.60;74.81;95518.63;5015852;28;20228;-88
2022/01/27 05:21:47;;;;;;;412.57;246.50;;;;;;;1.85;75.67;95569.91;5014949;28;20200;-88
2022/01/27 05:24:13;;;;;;;1460.17;741.37;;;;;;;1.85;75.60;95570.72;5013632;28;20230;-88
2022/01/27 05:26:39;;;;;;;1999.90;999.90;;;;;;;1.76;75.52;95558.59;5014857;28;20578;-88
2022/01/27 05:29:06;;;;;;;883.03;473.03;;;;;;;1.82;75.90;95571.00;5015077;28;20238;-84
2022/01/27 05:31:32;;;;;;;1999.90;999.90;;;;;;;1.75;76.30;95550.94;5014504;28;20180;-86
2022/01/27 05:33:57;;;;;;;334.43;216.73;;;;;;;1.56;76.06;95525.06;5014265;28;20602;-85
2022/01/27 05:36:29;;;;;;;869.83;453.73;;;;;;;1.51;75.97;95510.72;5014175;28;20282;-84
2022/01/27 05:38:55;;;;;;;1999.90;999.90;;;;;;;1.52;76.26;95507.16;5011922;28;20196;-87
2022/01/27 05:41:20;;;;;;;248.57;143.73;;;;;;;1.48;76.32;95503.19;5015829;28;20753;-89
2022/01/27 05:43:46;;;;;;;338.33;224.93;;;;;;;1.90;75.96;95575.53;5014952;28;20173;-88
2022/01/27 05:46:11;;;;;;;270.33;184.10;;;;;;;1.53;76.20;95528.72;5013306;28;20188;-85
2022/01/27 05:48:37;;;;;;;874.67;467.37;;;;;;;1.87;76.45;95576.59;5013267;28;20182;-89
2022/01/27 05:51:04;;;;;;;529.73;325.37;;;;;;;1.40;76.16;95503.06;5014018;28;20164;-88
2022/01/27 05:53:30;;;;;;;1425.83;715.80;;;;;;;1.79;76.15;95568.72;5026278;28;20173;-87
2022/01/27 05:55:59;;;;;;;892.73;480.50;;;;;;;1.56;77.13;95536.22;5013557;28;20176;-87
2022/01/27 05:58:25;;;;;;;1999.90;999.90;;;;;;;1.85;76.45;95591.50;5023954;28;20180;-86
2022/01/27 06:00:51;;;;;;;1999.90;999.90;;;;;;;1.89;77.06;95586.84;5014284;28;20204;-87
2022/01/27 06:03:17;;;;;;;950.93;535.50;;;;;;;1.74;76.43;95564.88;5013522;28;20250;-83
2022/01/27 06:05:42;;;;;;;415.63;301.63;;;;;;;1.71;77.03;95566.00;5014281;28;20208;-86
2022/01/27 06:08:08;;;;;;;1046.03;638.03;;;;;;;1.38;76.89;95511.97;5012932;28;20207;-85
2022/01/27 06:10:33;;;;;;;572.00;460.80;;;;;;;1.78;77.00;95587.00;5026424;28;20615;-84
2022/01/27 06:13:01;;;;;;;622.30;555.30;;;;;;;1.79;77.35;95599.84;5011996;28;20197;-84
2022/01/27 06:15:28;;;;;;;651.50;546.43;;;;;;;1.39;77.69;95544.69;5015289;28;20267;-85
2022/01/27 06:17:54;;;;;;;606.37;516.67;;;;;;;1.55;77.50;95560.56;5012457;28;20236;-83
2022/01/27 06:20:20;;;;;;;464.13;331.47;;;;;;;1.76;76.91;95586.31;5012218;28;20626;-83
2022/01/27 06:22:46;;;;;;;609.57;439.77;;;;;;;1.52;77.20;95546.06;5013649;28;20172;-84
2022/01/27 06:25:13;;;;;;;644.33;451.23;;;;;;;1.56;77.19;95548.41;5012839;28;20651;-83
2022/01/27 06:27:39;;;;;;;548.03;347.70;;;;;;;1.97;77.05;95610.34;5013671;28;20180;-84
2022/01/27 06:30:07;;;;;;;1526.93;788.50;;;;;;;1.55;76.74;95552.78;5013638;28;20167;-83
2022/01/27 06:32:33;;;;;;;656.47;520.33;;;;;;;1.89;77.81;95613.63;5013673;28;20180;-84
2022/01/27 06:35:00;;;;;;;983.17;539.80;;;;;;;1.92;77.63;95609.91;5017896;28;20668;-85
2022/01/27 06:37:25;;;;;;;1522.70;803.73;;;;;;;1.90;77.36;95620.44;5013601;28;20173;-85
2022/01/27 06:39:52;;;;;;;559.20;410.20;;;;;;;1.56;77.39;95559.56;5012597;28;20192;-84
2022/01/27 06:42:18;;;;;;;665.53;498.43;;;;;;;1.68;77.70;95584.41;5012073;28;20271;-85
2022/01/27 06:44:44;;;;;;;684.93;498.60;;;;;;;1.85;77.33;95596.69;5018131;28;20174;-87
2022/01/27 06:47:09;;;;;;;377.87;287.33;;;;;;;1.51;77.52;95538.44;5012276;28;20195;-86
2022/01/27 06:49:35;;;;;;;406.00;340.73;;;;;;;1.52;76.68;95540.88;5016043;28;20314;-86
2022/01/27 06:52:00;;;;;;;858.77;443.47;;;;;;;1.50;77.19;95519.44;5012794;28;20215;-87
2022/01/27 06:54:26;;;;;;;1999.90;999.90;;;;;;;1.72;77.35;95559.03;5013215;28;20165;-86
2022/01/27 06:56:51;;;;;;;1999.90;999.90;;;;;;;2.03;77.00;95606.34;5013378;28;20176;-85
2022/01/27 06:59:16;;;;;;;966.47;563.80;;;;;;;1.56;77.07;95531.03;5011880;28;20554;-87
2022/01/27 07:01:42;;;;;;;810.97;424.50;;;;;;;1.77;76.98;95573.22;5012265;28;20192;-85
2022/01/27 07:04:07;;;;;;;1999.90;999.90;;;;;;;1.53;75.85;95505.38;5012872;28;20189;-87
2022/01/27 07:06:34;;;;;;;1391.20;694.17;;;;;;;1.85;75.91;95560.34;5013250;28;20533;-87
2022/01/27 07:09:00;;;;;;;1999.90;999.90;;;;;;;1.79;75.93;95545.34;5013241;28;20169;-86
2022/01/27 07:11:25;;;;;;;1999.90;999.90;;;;;;;1.80;75.79;95530.59;5012648;28;20310;-88
2022/01/27 07:13:51;;;;;;;821.27;418.20;;;;;;;2.02;75.29;95565.78;5013314;28;20180;-85
2022/01/27 07:16:16;;;;;;;1999.90;999.90;;;;;;;2.32;75.97;95617.50;5011883;28;20255;-86
2022/01/27 07:18:42;;;;;;;229.93;88.83;;;;;;;1.96;75.41;95555.97;5012557;28;20231;-85
2022/01/27 07:21:07;;;;;;;1999.90;999.90;;;;;;;2.34;75.15;95610.38;5013150;28;20259;-86
2022/01/27 07:23:33;;;;;;;1999.90;999.90;;;;;;;2.11;74.67;95577.91;5011442;28;20176;-86
2022/01/27 07:25:58;;;;;;;1999.90;999.90;;;;;;;2.44;75.08;95629.34;5011201;28;20177;-85
2022/01/27 07:28:23;;;;;;;1383.57;684.77;;;;;;;2.12;74.87;95571.75;5011058;28;20180;-85
2022/01/27 07:30:49;;;;;;;786.77;383.20;;;;;;;2.17;75.01;95577.34;5011219;28;20188;-85
2022/01/27 07:33:15;;;;;;;1999.90;999.90;;;;;;;2.29;74.87;95591.81;5012132;28;20647;-87
2022/01/27 07:35:41;;;;;;;1999.90;999.90;;;;;;;2.23;74.54;95569.81;5012798;28;20184;-87
2022/01/27 07:38:06;;;;;;;1448.03;726.67;;;;;;;2.33;74.20;95595.75;5011128;28;20181;-87
2022/01/27 07:40:33;;;;;;;1381.53;684.20;;;;;;;2.50;74.75;95633.16;5010802;28;20220;-87
2022/01/27 07:42:58;;;;;;;1999.90;999.90;;;;;;;2.13;74.90;95574.22;5011177;28;20185;-85
2022/01/27 07:45:24;;;;;;;857.43;418.10;;;;;;;2.27;75.21;95610.13;5012941;28;20294;-86
2022/01/27 07:47:49;;;;;;;274.80;120.23;;;;;;;2.09;74.62;95572.03;5011171;28;20179;-85
2022/01/27 07:50:14;;;;;;;514.43;268.70;;;;;;;2.14;75.02;95582.84;5011937;28;20175;-86
2022/01/27 07:52:43;;;;;;;337.93;154.33;;;;;;;2.16;75.13;95588.72;5012493;28;20263;-86
2022/01/27 07:55:10;;;;;;;1493.60;757.50;;;;;;;2.27;75.36;95596.31;5006129;28;20319;-88
2022/01/27 07:57:36;;;;;;;1418.13;729.20;;;;;;;1.90;75.28;95536.59;5009926;28;20164;-88
2022/01/27 08:00:04;;;;;;;844.93;425.20;;;;;;;2.64;75.50;95645.69;5018709;28;20192;-88
2022/01/27 08:02:30;;;;;;;1999.90;999.90;;;;;;;1.82;74.60;95506.13;5011155;28;20181;-89
2022/01/27 08:04:55;;;;;;;237.27;137.80;;;;;;;2.40;74.97;95607.22;5011607;28;20176;-90
2022/01/27 08:07:21;;;;;;;1076.20;583.23;;;;;;;2.06;75.23;95587.91;5010711;28;20234;-91
2022/01/27 08:09:48;;;;;;;289.87;165.73;;;;;;;2.09;77.02;95610.97;5012196;28;20180;-87
2022/01/27 08:12:17;;;;;;;1108.43;626.47;;;;;;;1.65;77.68;95556.16;5010489;28;20187;-87
2022/01/27 08:14:45;;;;;;;1068.80;612.87;;;;;;;2.26;77.95;95633.63;5009705;28;20218;-87
2022/01/27 08:17:10;;;;;;;1507.23;778.10;;;;;;;1.85;77.15;95573.31;5010956;28;20183;-87
2022/01/27 08:19:36;;;;;;;643.50;497.60;;;;;;;1.82;77.17;95565.00;5011954;28;20295;-90
2022/01/27 08:22:01;;;;;;;740.53;530.60;;;;;;;1.61;77.04;95525.44;5011344;28;20706;-87
2022/01/27 08:24:27;;;;;;;444.30;346.60;;;;;;;1.79;77.45;95555.72;5011054;28;20168;-86
2022/01/27 08:26:59;;;;;;;1533.17;813.00;;;;;;;1.26;77.32;95472.41;5012052;28;20224;-90
2022/01/27 08:29:32;;;;;;;1550.93;799.60;;;;;;;1.80;77.60;95541.81;5010905;28;20207;-87
2022/01/27 08:32:01;;;;;;;554.13;373.53;;;;;;;1.93;77.04;95540.66;5010625;28;20191;-86
2022/01/27 08:34:36;;;;;;;1999.90;999.90;;;;;;;2.26;76.04;95599.88;5010587;28;20599;-88
2022/01/27 08:37:17;;;;;;;1144.97;654.23;;;;;;;2.60;76.54;95658.13;5011384;28;20247;-88
2022/01/27 08:39:43;;;;;;;1999.90;999.90;;;;;;;2.74;75.90;95653.44;5011950;28;20206;-86
2022/01/27 08:42:09;;;;;;;886.33;465.23;;;;;;;2.83;75.76;95656.00;5011864;28;20582;-87
2022/01/27 08:44:35;;;;;;;1999.90;999.90;;;;;;;2.49;75.00;95588.19;5011755;28;20247;-86
2022/01/27 08:47:01;;;;;;;1999.90;999.90;;;;;;;3.04;74.49;95661.78;5010301;28;20247;-87
2022/01/27 08:49:27;;;;;;;1999.90;999.90;;;;;;;2.84;74.02;95620.44;5011625;28;20180;-87
2022/01/27 08:51:54;;;;;;;1999.90;999.90;;;;;;;2.74;74.31;95606.66;5011796;28;20168;-87
2022/01/27 08:54:19;;;;;;;1999.90;999.90;;;;;;;2.86;74.06;95623.69;5010433;28;20192;-89
2022/01/27 08:56:45;;;;;;;1999.90;999.90;;;;;;;3.15;73.75;95665.97;5011487;28;20188;-88
2022/01/27 08:59:11;;;;;;;1508.73;764.37;;;;;;;2.65;73.59;95590.97;5010767;28;20173;-88
2022/01/27 09:01:38;;;;;;;1999.90;999.90;;;;;;;3.04;73.99;95664.38;5011459;28;20212;-89
2022/01/27 09:04:04;;;;;;;183.33;90.30;;;;;;;2.71;73.57;95594.78;5010460;28;20173;-89
2022/01/27 09:06:29;;;;;;;738.20;363.07;;;;;;;2.73;73.39;95598.06;5009762;28;20399;-87
2022/01/27 09:08:56;;;;;;;1999.90;999.90;;;;;;;2.79;73.56;95602.66;5011964;28;20244;-88
2022/01/27 09:11:22;;;;;;;1999.90;999.90;;;;;;;3.17;73.44;95669.25;5009929;28;20252;-88
2022/01/27 09:13:48;;;;;;;1999.90;999.90;;;;;;;3.07;72.87;95637.28;5011448;28;20180;-87
2022/01/27 09:16:15;;;;;;;1999.90;999.90;;;;;;;3.17;72.79;95669.25;5010109;28;20199;-90
2022/01/27 09:18:41;;;;;;;1392.97;692.73;;;;;;;2.86;72.98;95618.50;5012800;28;20220;-88
2022/01/27 09:21:12;;;;;;;1999.90;999.90;;;;;;;2.92;72.58;95615.34;5026432;28;20738;-89
2022/01/27 09:23:37;;;;;;;1999.90;999.90;;;;;;;2.94;72.50;95605.63;5009318;28;20204;-87
2022/01/27 09:26:07;;;;;;;834.50;441.33;;;;;;;3.37;71.66;95646.56;5011114;28;20262;-88
2022/01/27 09:28:33;;;;;;;1999.90;999.90;;;;;;;3.00;71.01;95592.03;5009929;28;20188;-88
2022/01/27 09:30:59;;;;;;;1999.90;999.90;;;;;;;2.95;71.44;95579.44;5009054;28;20643;-89
2022/01/27 09:33:25;;;;;;;1999.90;999.90;;;;;;;3.26;71.38;95616.38;5010534;28;20169;-89
2022/01/27 09:35:50;;;;;;;1999.90;999.90;;;;;;;3.58;70.88;95646.25;5009828;28;20722;-90
2022/01/27 09:38:16;;;;;;;1999.90;999.90;;;;;;;3.38;70.49;95596.13;5008988;28;20193;-91
2022/01/27 09:40:46;;;;;;;1999.90;999.90;;;;;;;3.28;70.03;95567.59;5009981;28;20192;-89
2022/01/27 09:43:12;;;;;;;1999.90;999.90;;;;;;;3.29;69.42;95566.63;5008467;28;20207;-90
2022/01/27 09:45:39;;;;;;;1999.90;999.90;;;;;;;2.98;69.27;95524.56;5009739;28;20184;-87
2022/01/27 09:48:13;;;;;;;1999.90;999.90;;;;;;;3.80;69.19;95631.00;5011037;28;20191;-88
2022/01/27 09:53:11;;;;;;;1999.90;999.90;;;;;;;3.33;69.48;95552.34;5014362;28;20184;-89
2022/01/27 09:55:37;;;;;;;1999.90;999.90;;;;;;;3.54;68.62;95578.09;5013113;28;20242;-88
2022/01/27 09:58:03;;;;;;;1999.90;999.90;;;;;;;3.91;68.76;95631.75;5013195;28;20636;-87
2022/01/27 10:00:29;;;;;;;1999.90;999.90;;;;;;;3.65;68.21;95600.44;5013455;28;20203;-90
2022/01/27 10:03:07;;;;;;;1999.90;999.90;;;;;;;3.68;67.28;95600.97;5023393;28;20191;-89
2022/01/27 10:05:33;;;;;;;1153.50;536.13;;;;;;;3.86;66.97;95640.00;5013291;28;20553;-91
2022/01/27 10:08:18;;;;;;;1999.90;999.90;;;;;;;3.34;67.07;95587.81;5012998;28;20326;-90
2022/01/27 10:10:46;;;;;;;1742.80;832.43;;;;;;;3.63;67.57;95651.84;5012884;28;20172;-91
2022/01/27 10:13:31;;;;;;;1999.90;999.90;;;;;;;3.62;68.06;95642.41;5013484;28;20721;-92
2022/01/27 10:15:57;;;;;;;1999.90;999.90;;;;;;;3.45;67.44;95596.38;5014614;28;20640;-91
2022/01/27 10:18:25;;;;;;;1999.90;999.90;;;;;;;3.51;66.63;95586.19;5014112;28;20246;-90
2022/01/27 10:21:02;;;;;;;1999.90;999.90;;;;;;;3.59;66.02;95575.84;5012840;28;20284;-91
2022/01/27 10:23:32;;;;;;;1999.90;790.20;;;;;;;3.68;65.36;95569.72;5013282;28;20176;-93
2022/01/27 10:26:08;;;;;;;1996.50;826.43;;;;;;;4.18;64.97;95637.66;5013336;28;20247;-88
2022/01/27 10:31:08;;;;;;;1180.53;594.93;;;;;;;4.27;64.32;95629.88;5012590;28;20185;-90
2022/01/27 10:33:43;;;;;;;1165.00;783.13;;;;;;;3.89;63.86;95587.63;5014220;28;20176;-91
2022/01/27 10:36:18;;;;;;;383.87;352.63;;;;;;;4.14;63.92;95632.91;5007664;28;20176;-90
2022/01/27 10:38:43;;;;;;;1273.83;753.47;;;;;;;3.77;64.43;95557.59;5013077;28;20623;-90
2022/01/27 10:42:08;;;;;;;1177.77;738.83;;;;;;;4.44;63.97;95619.41;5012987;28;20258;-91
2022/01/27 10:44:47;;;;;;;149.73;137.37;;;;;;;4.60;61.97;95579.56;5013555;28;20167;-88
2022/01/27 10:47:21;;;;;;;266.30;251.20;;;;;;;5.06;61.80;95614.00;5012423;28;20176;-92
2022/01/27 10:49:51;;;;;;;165.07;156.03;;;;;;;4.63;61.18;95555.81;5012635;28;20173;-91
2022/01/27 10:52:27;;;;;;;94.33;88.60;;;;;;;4.87;60.39;95579.38;5012740;28;20311;-90
2022/01/27 10:55:00;;;;;;;184.40;174.67;;;;;;;5.07;60.64;95607.81;5012510;28;20222;-93
2022/01/27 10:57:27;;;;;;;295.67;278.73;;;;;;;5.12;60.50;95608.97;5013393;28;20169;-94
2022/01/27 11:00:14;;;;;;;492.47;440.20;;;;;;;5.11;61.72;95606.50;5012976;28;20219;-92
2022/01/27 11:02:48;;;;;;;110.20;102.83;;;;;;;5.14;60.03;95599.19;5013156;28;20253;-93
2022/01/27 11:05:23;;;;;;;23.33;13.00;;;;;;;5.07;58.91;95579.09;4999585;28;20694;-90
2022/01/27 11:07:49;;;;;;;11.43;7.30;;;;;;;4.83;59.06;95551.16;5011658;28;20192;-90
2022/01/27 11:10:16;;;;;;;12.53;7.50;;;;;;;4.87;59.24;95600.22;5015759;28;20164;-91
2022/01/27 11:12:43;;;;;;;18.87;9.97;;;;;;;4.84;59.99;95605.75;5012274;28;20256;-91
2022/01/27 11:15:10;;;;;;;18.93;10.70;;;;;;;4.54;59.80;95512.44;5010144;28;20703;-90
2022/01/27 11:17:38;;;;;;;15.70;9.27;;;;;;;4.58;58.87;95518.97;5024541;28;20242;-90
2022/01/27 11:20:52;;;;;;;17.23;9.87;;;;;;;4.92;58.90;95539.78;5011401;28;20603;-87
2022/01/27 11:23:12;;;;;;;20.77;18.70;;;;;;;5.18;57.94;95568.38;5008464;28;20192;-89
2022/01/27 11:28:05;;;;;;;18.60;16.30;;;;;;;5.27;56.45;95563.03;4998799;28;20180;-89
2022/01/27 11:30:48;;;;;;;14.10;6.90;;;;;;;5.60;56.03;95586.53;5004065;28;20173;-89
2022/01/27 11:33:14;;;;;;;14.97;6.67;;;;;;;5.65;55.19;95579.03;5013157;28;20188;-87
2022/01/27 11:35:41;;;;;;;13.27;7.53;;;;;;;5.75;55.19;95573.66;5012940;28;20334;-90
2022/01/27 11:38:08;;;;;;;21.33;9.80;;;;;;;5.35;55.08;95530.88;5012520;28;20674;-92
2022/01/27 11:40:37;;;;;;;12.23;6.73;;;;;;;5.67;55.00;95570.06;5012473;28;20200;-88
2022/01/27 11:43:11;;;;;;;14.73;7.60;;;;;;;5.65;55.05;95574.63;5012526;28;20184;-90
2022/01/27 11:45:36;;;;;;;17.53;8.43;;;;;;;5.76;55.01;95573.50;5017495;28;20644;-90
2022/01/27 11:48:11;;;;;;;16.93;8.40;;;;;;;5.87;54.96;95574.97;5011707;28;20183;-90
2022/01/27 11:50:50;;;;;;;16.57;7.63;;;;;;;5.84;54.51;95572.69;5011374;28;20563;-89
2022/01/27 11:53:36;;;;;;;20.93;10.03;;;;;;;5.74;54.71;95565.00;5011463;28;20161;-89
2022/01/27 11:56:09;;;;;;;13.23;7.37;;;;;;;5.51;54.45;95524.84;5012616;28;20181;-90
2022/01/27 11:58:49;;;;;;;15.57;7.87;;;;;;;5.53;54.61;95533.34;5026361;28;20184;-90
2022/01/27 12:01:28;;;;;;;9.83;5.90;;;;;;;5.65;53.21;95571.19;5007496;28;20200;-89
2022/01/27 12:04:06;;;;;;;10.63;6.40;;;;;;;5.57;53.23;95576.41;5010201;28;20564;-89
2022/01/27 12:06:37;;;;;;;9.67;5.70;;;;;;;5.42;52.50;95576.25;5010891;28;20186;-91